• Join FlightAware (Why Join?)
  • Login
  • US Flag 
11:42AM EDT


 

Airport Tracker/Info


-or-


 

Live Flight TrackerFlight Track Log ✈ GJS3706 ✈ 12-May-2013 ✈ KORD - KBTV

Flight Track Log - Related Links

Times and Time Zones

All times are in EDT time to prevent confusion due to time zone crossing. See the GJS3706 flight status page for this flight to view local times or setup timezone preferences in your user account.

Time Position Orientation Groundspeed Altitude Reporting Facility
EDT Latitude Longitude Course Direction KTS MPH feet Rate Location/Type
09:01AM 42.0167 -87.9167 86° East 183 211 3,000  Level Chicago TRACON
09:02AM 42.0667 -87.8833 26° Northeast 234 269 4,800 2,760 Climbing Chicago TRACON
09:03AM 42.1269 -87.4603 63° Northeast  Level FlightAware Approximate
09:03AM 42.1167 -87.8000 51° Northeast 273 314 8,600  Level Chicago TRACON
09:04AM 42.1804 -87.3090 66° East  Level FlightAware Approximate
09:04AM 42.1333 -87.7167 75° East 296 341 10,800  Level Chicago TRACON
09:04AM 42.1411 -87.6717 77° East 296 341 11,900 2,100 Climbing Chicago Center
09:05AM 42.2314 -87.1560 66° East  Level FlightAware Approximate
09:05AM 42.1667 -87.5600 73° East 313 360 14,100  Level Chicago Center
09:06AM 42.2668 -86.9983 86° East  Level FlightAware Approximate
09:06AM 42.1958 -87.4314 73° East 359 413 15,800  Level Chicago Center
09:07AM 42.2269 -87.2936 73° East 383 441 17,900 1,920 Climbing Chicago Center
09:08AM 42.2583 -87.1517 73° East 396 456 19,800 1,860 Climbing Chicago Center
09:09AM 42.2839 -86.9625 80° East 433 498 21,800 1,800 Climbing Chicago Center
09:10AM 42.2908 -86.7967 87° East 443 510 23,600 1,440 Climbing Chicago Center
09:11AM 42.2964 -86.6197 88° East 462 532 24,800 1,080 Climbing Chicago Center
09:12AM 42.3031 -86.4483 87° East 479 551 25,900 1,140 Climbing Chicago Center
09:13AM 42.3097 -86.2650 87° East 490 564 27,200 1,260 Climbing Chicago Center
09:14AM 42.3169 -86.0778 87° East 501 577 28,500 1,320 Climbing Chicago Center
09:15AM 42.3139 -85.8533 91° East 502 578 30,000 1,200 Climbing Chicago Center
09:16AM 42.3103 -85.6639 91° East 508 585 31,000 840 Climbing Chicago Center
09:18AM 42.3086 -85.4719 91° East 513 590 31,800 720 Climbing Chicago Center
09:19AM 42.3053 -85.2767 91° East 519 597 32,500 600 Climbing Chicago Center
09:20AM 42.3017 -85.0794 91° East 526 605 33,100 540 Climbing Chicago Center
09:21AM 42.2972 -84.8814 92° East 529 609 33,700 600 Climbing Chicago Center
09:22AM 42.2922 -84.6817 92° East 534 615 34,400 780 Climbing Chicago Center
09:23AM 42.2903 -84.4425 91° East 533 613 35,400 840 Climbing Chicago Center
09:24AM 42.3136 -84.2675 80° East 529 609 36,200 720 Climbing Cleveland Center
09:25AM 42.3403 -84.0781 79° East 524 603 36,900 360 Climbing Cleveland Center
09:26AM 42.3689 -83.8911 78° East 519 597 37,000  Climbing Cleveland Center
09:27AM 42.3953 -83.6956 80° East 519 597 37,000  Level Cleveland Center
09:28AM 42.4133 -83.4828 83° East 519 597 37,000  Level Cleveland Center
09:29AM 42.4181 -83.2861 88° East 519 597 37,000  Level Cleveland Center
09:30AM 42.4267 -83.0894 87° East 513 590 37,000  Level Cleveland Center
09:31AM 42.4328 -82.8900 88° East 513 590 37,000  Level Cleveland Center
09:32AM 42.4386 -82.6933 88° East 518 596 37,000  Level Cleveland Center
09:33AM 42.4444 -82.4936 88° East 518 596 37,000  Level Cleveland Center
09:34AM 42.4494 -82.2997 88° East 518 596 37,000  Level Cleveland Center
09:35AM 42.4539 -82.1422 88° East 518 596 37,000  Level Cleveland Center
09:36AM 42.4589 -81.9086 88° East 513 590 37,000  Level Cleveland Center
09:37AM 42.4650 -81.7314 87° East 518 596 37,000  Level Cleveland Center
09:38AM 42.4667 -81.5372 89° East 518 596 37,000  Level Cleveland Center
09:39AM 42.4725 -81.3264 88° East 513 590 37,000  Level Cleveland Center
09:40AM 42.4756 -81.1264 89° East 518 596 37,000  Level Cleveland Center
09:41AM 42.4783 -80.9294 89° East 518 596 37,000  Level Cleveland Center
09:42AM 42.4831 -80.7353 88° East 513 590 37,000  Level Cleveland Center
09:43AM 42.4853 -80.5408 89° East 513 590 37,000  Level Cleveland Center
09:44AM 42.4869 -80.3467 89° East 513 590 37,000  Level Cleveland Center
09:45AM 42.4886 -80.1467 89° East 519 597 37,000  Level Cleveland Center
09:46AM 42.4900 -79.9750 89° East 514 592 37,000  Level Cleveland Center
09:47AM 42.4950 -79.7778 88° East 514 592 37,000  Level Cleveland Center
09:48AM 42.4933 -79.5836 91° East 514 592 37,000  Level Cleveland Center
09:49AM 42.4936 -79.3892 90° East 514 592 37,000  Level Cleveland Center
09:50AM 42.5103 -79.1947 83° East 514 592 37,000  Level Cleveland Center
09:51AM 42.5558 -79.0019 72° East 520 598 37,000  Level Cleveland Center
09:52AM 42.6008 -78.8119 72° East 527 606 37,000  Level Cleveland Center
09:53AM 42.6436 -78.6214 73° East 527 606 37,000  Level Cleveland Center
09:54AM 42.6861 -78.4281 73° East 532 612 37,000  Level Cleveland Center
09:55AM 42.7303 -78.2372 72° East 532 612 37,000  Level Cleveland Center
09:56AM 42.7722 -78.0461 73° East 532 612 37,000  Level Cleveland Center
09:57AM 42.8133 -77.8492 74° East 527 606 37,000  Level Cleveland Center
09:58AM 42.8589 -77.6631 71° East 522 601 37,000  Level Cleveland Center
09:59AM 42.9394 -77.4719 60° Northeast 522 601 37,000  Level Cleveland Center
10:01AM 43.1078 -77.0936 59° Northeast 522 601 37,000  Level Boston Center
10:02AM 43.1858 -76.9172 59° Northeast 527 606 37,000  Level Boston Center
10:03AM 43.2614 -76.7431 59° Northeast 532 612 37,000  Level Boston Center
10:04AM 43.3389 -76.5658 59° Northeast 538 619 37,000 -300 Level Boston Center
10:05AM 43.4097 -76.3875 61° Northeast 538 619 36,500 -1,200 Descending Boston Center
10:06AM 43.4719 -76.2083 64° Northeast 524 603 34,700 -1,800 Descending Boston Center
10:07AM 43.5342 -76.0261 65° Northeast 519 597 32,900 -1,800 Descending Boston Center
10:08AM 43.6006 -75.8350 64° Northeast 531 611 31,100 -1,860 Descending Boston Center
10:09AM 43.6708 -75.6322 64° Northeast 531 611 29,200 -1,860 Descending Boston Center
10:10AM 43.7322 -75.4514 65° Northeast 531 611 27,400 -1,800 Descending Boston Center
10:11AM 43.7931 -75.2706 65° Northeast 526 605 25,600 -1,800 Descending Boston Center
10:12AM 43.8472 -75.0972 67° East 506 582 23,800 -1,860 Descending Boston Center
10:13AM 43.9008 -74.9356 65° Northeast 481 554 21,900 -1,860 Descending Boston Center
10:14AM 43.9542 -74.7733 65° Northeast 464 534 20,100 -1,500 Descending Boston Center
10:15AM 44.0031 -74.6222 66° East 441 507 19,000 -600 Descending Boston Center
10:16AM 44.0517 -74.4736 65° Northeast 430 495 19,000 -360 Level Boston Center
10:17AM 44.1000 -74.3222 66° East 425 489 18,300 -1,320 Descending Boston Center
10:18AM 44.1461 -74.1761 66° East 419 482 16,400 -1,680 Descending Boston Center
10:19AM 44.1897 -74.0497 64° Northeast 405 466 15,000 -1,620 Descending Boston Center
10:20AM 44.2375 -73.8975 66° East 395 455 13,200 -1,620 Descending Boston Center
10:21AM 44.2703 -73.7678 71° East 375 432 11,800 -1,500 Descending Boston Center
10:22AM 44.2925 -73.6525 75° East 321 369 10,300 -1,500 Descending Boston Center
10:23AM 44.3122 -73.5397 76° East 303 349 8,900 -1,440 Descending Boston Center
10:24AM 44.3300 -73.4239 78° East 297 342 7,500 -1,440 Descending Boston Center
10:25AM 44.3456 -73.3108 79° East 297 342 6,100 -780 Descending Boston Center
10:26AM 44.3461 -73.2181 89° East 263 303 6,000 -60 Descending Boston Center
10:27AM 44.3111 -73.1594 130° Southeast 195 224 6,000 -600 Level Boston Center
10:28AM 44.3011 -73.1014 104° East 175 201 4,900 -1,020 Descending Boston Center
10:29AM 44.3347 -73.0439 51° Northeast 158 182 4,000 -900 Descending Boston Center